Lincolnville, Maine
Current Conditions -  °F | °C
As of 12:15 PM on Saturday 20 Dec 2014 (Local Time) from KRKD Reporting Station
Scattered Clouds Scattered Clouds  
Wind Chill: 17°   Ceiling: Unl
Heat Index: 27°   Visibility: 10mi
Dew Point: 21°   Wind: 9mph
Humidity: 80%   Direction: 30°NNE
Pressure: 30.31"   Gusts: NA
Location:  44.28°N, 69.01°W
Report Text: KRKD 201715Z AUTO 03008KT 10SM SCT012 M03/M06 A3031 RMK AO1
Loading
Personal Weather Stations






























Interactive Weather Map New forecast layout! Learn more

10-Day Weather Forecast

Advertisements
Track Severe Weather on mobile